sensor_id;sensor_type;location;lat;lon;timestamp;pressure;altitude;pressure_sealevel;temperature;humidity
12636;BME280;6383;50.830;7.210;2023-04-16T00:01:37;101153.16;;;10.94;80.24
12636;BME280;6383;50.830;7.210;2023-04-16T00:04:05;101153.97;;;10.95;80.43
12636;BME280;6383;50.830;7.210;2023-04-16T00:06:34;101152.84;;;10.96;80.61
12636;BME280;6383;50.830;7.210;2023-04-16T00:09:03;101163.75;;;10.96;80.89
12636;BME280;6383;50.830;7.210;2023-04-16T00:11:32;101157.78;;;10.94;81.07
12636;BME280;6383;50.830;7.210;2023-04-16T00:14:01;101161.59;;;10.93;80.99
12636;BME280;6383;50.830;7.210;2023-04-16T00:16:29;101160.25;;;10.90;80.63
12636;BME280;6383;50.830;7.210;2023-04-16T00:18:57;101163.53;;;10.87;80.47
12636;BME280;6383;50.830;7.210;2023-04-16T00:21:24;101163.03;;;10.85;80.80
12636;BME280;6383;50.830;7.210;2023-04-16T00:23:53;101166.03;;;10.84;81.22
12636;BME280;6383;50.830;7.210;2023-04-16T00:26:21;101169.34;;;10.81;80.60
12636;BME280;6383;50.830;7.210;2023-04-16T00:28:50;101168.00;;;10.78;81.30
12636;BME280;6383;50.830;7.210;2023-04-16T00:31:25;101166.09;;;10.79;81.43
12636;BME280;6383;50.830;7.210;2023-04-16T00:33:53;101169.91;;;10.78;81.11
12636;BME280;6383;50.830;7.210;2023-04-16T00:36:23;101165.56;;;10.77;80.62
12636;BME280;6383;50.830;7.210;2023-04-16T00:38:51;101163.66;;;10.77;81.49
12636;BME280;6383;50.830;7.210;2023-04-16T00:41:18;101155.50;;;10.77;81.43
12636;BME280;6383;50.830;7.210;2023-04-16T00:43:47;101163.66;;;10.77;80.97
12636;BME280;6383;50.830;7.210;2023-04-16T00:46:19;101164.47;;;10.78;81.40
12636;BME280;6383;50.830;7.210;2023-04-16T00:48:49;101171.81;;;10.77;81.43
12636;BME280;6383;50.830;7.210;2023-04-16T00:51:19;101172.09;;;10.76;80.95
12636;BME280;6383;50.830;7.210;2023-04-16T00:53:48;101164.22;;;10.74;81.85
12636;BME280;6383;50.830;7.210;2023-04-16T00:56:18;101168.84;;;10.74;81.73
12636;BME280;6383;50.830;7.210;2023-04-16T00:58:47;101169.38;;;10.76;81.73
12636;BME280;6383;50.830;7.210;2023-04-16T01:01:16;101169.91;;;10.78;81.83
12636;BME280;6383;50.830;7.210;2023-04-16T01:03:51;101169.63;;;10.79;81.15
12636;BME280;6383;50.830;7.210;2023-04-16T01:06:20;101170.16;;;10.81;82.46
12636;BME280;6383;50.830;7.210;2023-04-16T01:08:48;101177.72;;;10.84;81.59
12636;BME280;6383;50.830;7.210;2023-04-16T01:11:16;101172.00;;;10.86;81.90
12636;BME280;6383;50.830;7.210;2023-04-16T01:13:46;101172.81;;;10.86;81.71
12636;BME280;6383;50.830;7.210;2023-04-16T01:16:13;101177.97;;;10.88;81.47
12636;BME280;6383;50.830;7.210;2023-04-16T01:18:42;101170.63;;;10.88;81.86
12636;BME280;6383;50.830;7.210;2023-04-16T01:21:13;101179.31;;;10.90;81.41
12636;BME280;6383;50.830;7.210;2023-04-16T01:23:40;101181.75;;;10.92;81.30
12636;BME280;6383;50.830;7.210;2023-04-16T01:26:09;101176.03;;;10.93;81.60
12636;BME280;6383;50.830;7.210;2023-04-16T01:28:37;101183.38;;;10.93;81.64
12636;BME280;6383;50.830;7.210;2023-04-16T01:31:05;101181.47;;;10.93;81.33
12636;BME280;6383;50.830;7.210;2023-04-16T01:33:33;101184.19;;;10.93;81.55
12636;BME280;6383;50.830;7.210;2023-04-16T01:36:02;101185.81;;;10.94;81.60
12636;BME280;6383;50.830;7.210;2023-04-16T01:38:31;101198.34;;;10.95;81.00
12636;BME280;6383;50.830;7.210;2023-04-16T01:41:00;101193.72;;;10.96;81.89
12636;BME280;6383;50.830;7.210;2023-04-16T01:43:29;101196.16;;;10.98;82.05
12636;BME280;6383;50.830;7.210;2023-04-16T01:46:12;101192.28;;;10.99;81.48
12636;BME280;6383;50.830;7.210;2023-04-16T01:48:41;101192.28;;;10.99;81.73
12636;BME280;6383;50.830;7.210;2023-04-16T01:51:09;101193.94;;;11.00;81.69
12636;BME280;6383;50.830;7.210;2023-04-16T01:53:39;101192.28;;;10.99;82.04
12636;BME280;6383;50.830;7.210;2023-04-16T01:56:09;101201.59;;;10.98;81.75
12636;BME280;6383;50.830;7.210;2023-04-16T01:58:38;101184.72;;;10.95;81.81
12636;BME280;6383;50.830;7.210;2023-04-16T02:01:07;101191.56;;;10.93;82.15
12636;BME280;6383;50.830;7.210;2023-04-16T02:03:35;101202.72;;;10.91;81.52
12636;BME280;6383;50.830;7.210;2023-04-16T02:06:03;101194.84;;;10.90;81.50
12636;BME280;6383;50.830;7.210;2023-04-16T02:08:32;101197.84;;;10.88;81.84
12636;BME280;6383;50.830;7.210;2023-04-16T02:11:02;101201.38;;;10.89;82.72
12636;BME280;6383;50.830;7.210;2023-04-16T02:13:31;101198.38;;;10.90;82.32
12636;BME280;6383;50.830;7.210;2023-04-16T02:16:00;101188.31;;;10.91;82.75
12636;BME280;6383;50.830;7.210;2023-04-16T02:18:28;101192.66;;;10.92;82.35
12636;BME280;6383;50.830;7.210;2023-04-16T02:20:57;101188.59;;;10.89;81.65
12636;BME280;6383;50.830;7.210;2023-04-16T02:23:27;101193.22;;;10.89;82.21
12636;BME280;6383;50.830;7.210;2023-04-16T02:25:55;101191.31;;;10.89;82.86
12636;BME280;6383;50.830;7.210;2023-04-16T02:28:26;101187.78;;;10.89;83.15
12636;BME280;6383;50.830;7.210;2023-04-16T02:30:53;101185.03;;;10.89;82.58
12636;BME280;6383;50.830;7.210;2023-04-16T02:33:21;101192.94;;;10.90;83.01
12636;BME280;6383;50.830;7.210;2023-04-16T02:35:52;101190.22;;;10.90;83.31
12636;BME280;6383;50.830;7.210;2023-04-16T02:38:19;101184.75;;;10.90;82.80
12636;BME280;6383;50.830;7.210;2023-04-16T02:40:48;101184.75;;;10.90;82.09
12636;BME280;6383;50.830;7.210;2023-04-16T02:43:17;101184.75;;;10.90;82.70
12636;BME280;6383;50.830;7.210;2023-04-16T02:45:46;101189.94;;;10.92;82.95
12636;BME280;6383;50.830;7.210;2023-04-16T02:48:14;101193.19;;;10.94;82.74
12636;BME280;6383;50.830;7.210;2023-04-16T02:50:43;101191.81;;;10.97;82.50
12636;BME280;6383;50.830;7.210;2023-04-16T02:53:12;101186.84;;;10.99;81.96
12636;BME280;6383;50.830;7.210;2023-04-16T02:55:48;101198.56;;;10.99;81.95
12636;BME280;6383;50.830;7.210;2023-04-16T02:58:17;101194.25;;;10.98;81.36
12636;BME280;6383;50.830;7.210;2023-04-16T03:00:48;101195.03;;;10.99;82.51
12636;BME280;6383;50.830;7.210;2023-04-16T03:03:16;101189.88;;;10.97;82.12
12636;BME280;6383;50.830;7.210;2023-04-16T03:05:44;101191.81;;;10.97;82.35
12636;BME280;6383;50.830;7.210;2023-04-16T03:08:13;101194.81;;;10.95;82.56
12636;BME280;6383;50.830;7.210;2023-04-16T03:10:42;101194.81;;;10.95;81.39
12636;BME280;6383;50.830;7.210;2023-04-16T03:13:10;101191.28;;;10.94;81.58
12636;BME280;6383;50.830;7.210;2023-04-16T03:15:37;101193.47;;;10.92;81.87
12636;BME280;6383;50.830;7.210;2023-04-16T03:18:06;101191.56;;;10.93;82.41
12636;BME280;6383;50.830;7.210;2023-04-16T03:20:33;101191.28;;;10.94;82.40
12636;BME280;6383;50.830;7.210;2023-04-16T03:23:02;101194.53;;;10.97;81.67
12636;BME280;6383;50.830;7.210;2023-04-16T03:25:30;101193.13;;;10.99;82.83
12636;BME280;6383;50.830;7.210;2023-04-16T03:27:58;101195.84;;;10.99;82.67
12636;BME280;6383;50.830;7.210;2023-04-16T03:30:27;101202.91;;;11.00;82.53
12636;BME280;6383;50.830;7.210;2023-04-16T03:32:54;101200.19;;;11.00;82.72
12636;BME280;6383;50.830;7.210;2023-04-16T03:35:23;101202.91;;;11.00;82.43
12636;BME280;6383;50.830;7.210;2023-04-16T03:37:53;101208.88;;;11.02;82.32
12636;BME280;6383;50.830;7.210;2023-04-16T03:40:22;101208.88;;;11.02;82.30
12636;BME280;6383;50.830;7.210;2023-04-16T03:42:51;101205.88;;;11.04;82.53
12636;BME280;6383;50.830;7.210;2023-04-16T03:45:20;101207.50;;;11.05;82.83
12636;BME280;6383;50.830;7.210;2023-04-16T03:47:49;101204.50;;;11.06;83.21
12636;BME280;6383;50.830;7.210;2023-04-16T03:50:19;101203.97;;;11.04;82.81
12636;BME280;6383;50.830;7.210;2023-04-16T03:52:49;101208.88;;;11.02;82.71
12636;BME280;6383;50.830;7.210;2023-04-16T03:55:16;101216.25;;;11.02;83.19
12636;BME280;6383;50.830;7.210;2023-04-16T03:57:45;101211.09;;;11.00;83.51
12636;BME280;6383;50.830;7.210;2023-04-16T04:00:15;101215.72;;;11.00;83.19
12636;BME280;6383;50.830;7.210;2023-04-16T04:02:44;101205.91;;;10.99;82.94
12636;BME280;6383;50.830;7.210;2023-04-16T04:05:13;101209.78;;;10.98;83.08
12636;BME280;6383;50.830;7.210;2023-04-16T04:07:42;101213.88;;;10.95;82.95
12636;BME280;6383;50.830;7.210;2023-04-16T04:10:13;101219.31;;;10.95;83.34
12636;BME280;6383;50.830;7.210;2023-04-16T04:12:41;101223.94;;;10.94;83.31
12636;BME280;6383;50.830;7.210;2023-04-16T04:15:10;101218.78;;;10.93;83.31
12636;BME280;6383;50.830;7.210;2023-04-16T04:17:39;101215.81;;;10.89;83.41
12636;BME280;6383;50.830;7.210;2023-04-16T04:20:09;101227.53;;;10.90;83.21
12636;BME280;6383;50.830;7.210;2023-04-16T04:22:39;101224.00;;;10.89;83.25
12636;BME280;6383;50.830;7.210;2023-04-16T04:25:08;101223.19;;;10.89;83.77
12636;BME280;6383;50.830;7.210;2023-04-16T04:27:37;101223.47;;;10.87;83.67
12636;BME280;6383;50.830;7.210;2023-04-16T04:30:07;101228.09;;;10.87;84.21
12636;BME280;6383;50.830;7.210;2023-04-16T04:32:35;101231.63;;;10.87;83.53
12636;BME280;6383;50.830;7.210;2023-04-16T04:35:04;101239.25;;;10.85;83.96
12636;BME280;6383;50.830;7.210;2023-04-16T04:37:34;101234.09;;;10.84;84.39
12636;BME280;6383;50.830;7.210;2023-04-16T04:40:02;101238.44;;;10.85;83.65
12636;BME280;6383;50.830;7.210;2023-04-16T04:42:30;101236.53;;;10.85;83.80
12636;BME280;6383;50.830;7.210;2023-04-16T04:44:59;101246.34;;;10.86;83.98
12636;BME280;6383;50.830;7.210;2023-04-16T04:47:27;101240.06;;;10.86;83.79
12636;BME280;6383;50.830;7.210;2023-04-16T04:49:59;101247.97;;;10.87;83.60
12636;BME280;6383;50.830;7.210;2023-04-16T04:52:30;101246.34;;;10.86;84.01
12636;BME280;6383;50.830;7.210;2023-04-16T04:54:59;101242.00;;;10.85;84.29
12636;BME280;6383;50.830;7.210;2023-04-16T04:57:29;101240.59;;;10.88;84.21
12636;BME280;6383;50.830;7.210;2023-04-16T04:59:57;101243.06;;;10.89;84.67
12636;BME280;6383;50.830;7.210;2023-04-16T05:02:26;101246.88;;;10.88;84.21
12636;BME280;6383;50.830;7.210;2023-04-16T05:04:53;101242.25;;;10.89;84.16
12636;BME280;6383;50.830;7.210;2023-04-16T05:07:22;101234.88;;;10.89;84.10
12636;BME280;6383;50.830;7.210;2023-04-16T05:09:50;101243.06;;;10.89;84.27
12636;BME280;6383;50.830;7.210;2023-04-16T05:12:17;101240.03;;;10.91;84.71
12636;BME280;6383;50.830;7.210;2023-04-16T05:14:46;101240.84;;;10.91;84.72
12636;BME280;6383;50.830;7.210;2023-04-16T05:17:15;101245.50;;;10.91;84.48
12636;BME280;6383;50.830;7.210;2023-04-16T05:19:45;101254.75;;;10.90;84.86
12636;BME280;6383;50.830;7.210;2023-04-16T05:22:12;101249.31;;;10.90;84.10
12636;BME280;6383;50.830;7.210;2023-04-16T05:24:41;101252.56;;;10.92;83.85
12636;BME280;6383;50.830;7.210;2023-04-16T05:27:10;101254.19;;;10.93;84.24
12636;BME280;6383;50.830;7.210;2023-04-16T05:29:39;101257.72;;;10.93;84.11
12636;BME280;6383;50.830;7.210;2023-04-16T05:32:08;101260.16;;;10.95;84.70
12636;BME280;6383;50.830;7.210;2023-04-16T05:34:36;101269.97;;;10.96;84.43
12636;BME280;6383;50.830;7.210;2023-04-16T05:37:06;101280.06;;;10.95;84.34
12636;BME280;6383;50.830;7.210;2023-04-16T05:39:34;101281.69;;;10.97;84.66
12636;BME280;6383;50.830;7.210;2023-04-16T05:42:02;101285.22;;;10.97;84.19
12636;BME280;6383;50.830;7.210;2023-04-16T05:44:31;101291.16;;;10.99;84.29
12636;BME280;6383;50.830;7.210;2023-04-16T05:46:59;101293.59;;;11.01;84.11
12636;BME280;6383;50.830;7.210;2023-04-16T05:49:26;101298.50;;;11.04;84.57
12636;BME280;6383;50.830;7.210;2023-04-16T05:51:53;101288.13;;;11.06;84.94
12636;BME280;6383;50.830;7.210;2023-04-16T05:54:22;101294.63;;;11.10;84.26
12636;BME280;6383;50.830;7.210;2023-04-16T05:56:51;101284.56;;;11.10;84.35
12636;BME280;6383;50.830;7.210;2023-04-16T05:59:18;101288.91;;;11.11;84.59
12636;BME280;6383;50.830;7.210;2023-04-16T06:01:46;101287.00;;;11.12;84.50
12636;BME280;6383;50.830;7.210;2023-04-16T06:04:20;101283.97;;;11.13;83.93
12636;BME280;6383;50.830;7.210;2023-04-16T06:06:48;101275.00;;;11.13;84.02
12636;BME280;6383;50.830;7.210;2023-04-16T06:09:16;101280.44;;;11.13;84.27
12636;BME280;6383;50.830;7.210;2023-04-16T06:11:45;101284.78;;;11.14;84.40
12636;BME280;6383;50.830;7.210;2023-04-16T06:14:19;101289.94;;;11.15;84.10
12636;BME280;6383;50.830;7.210;2023-04-16T06:16:48;101292.66;;;11.15;83.83
12636;BME280;6383;50.830;7.210;2023-04-16T06:19:16;101291.91;;;11.10;83.75
12636;BME280;6383;50.830;7.210;2023-04-16T06:21:45;101300.63;;;11.12;84.40
12636;BME280;6383;50.830;7.210;2023-04-16T06:24:15;101297.88;;;11.12;83.82
12636;BME280;6383;50.830;7.210;2023-04-16T06:26:45;101304.97;;;11.13;84.81
12636;BME280;6383;50.830;7.210;2023-04-16T06:29:14;101316.38;;;11.15;83.71
12636;BME280;6383;50.830;7.210;2023-04-16T06:31:43;101305.19;;;11.16;84.58
12636;BME280;6383;50.830;7.210;2023-04-16T06:34:11;101309.53;;;11.17;83.97
12636;BME280;6383;50.830;7.210;2023-04-16T06:36:41;101311.16;;;11.18;84.61
12636;BME280;6383;50.830;7.210;2023-04-16T06:39:10;101303.00;;;11.18;83.87
12636;BME280;6383;50.830;7.210;2023-04-16T06:41:37;101316.34;;;11.20;84.26
12636;BME280;6383;50.830;7.210;2023-04-16T06:44:06;101316.88;;;11.22;85.06
12636;BME280;6383;50.830;7.210;2023-04-16T06:46:35;101322.03;;;11.23;85.03
12636;BME280;6383;50.830;7.210;2023-04-16T06:49:04;101326.38;;;11.24;84.33
12636;BME280;6383;50.830;7.210;2023-04-16T06:51:31;101331.03;;;11.24;84.01
12636;BME280;6383;50.830;7.210;2023-04-16T06:53:59;101329.09;;;11.24;84.20
12636;BME280;6383;50.830;7.210;2023-04-16T06:56:28;101328.00;;;11.25;84.98
12636;BME280;6383;50.830;7.210;2023-04-16T06:58:57;101335.09;;;11.26;85.01
12636;BME280;6383;50.830;7.210;2023-04-16T07:01:29;101325.00;;;11.27;85.09
12636;BME280;6383;50.830;7.210;2023-04-16T07:03:57;101327.72;;;11.27;84.89
12636;BME280;6383;50.830;7.210;2023-04-16T07:06:26;101332.88;;;11.28;85.07
12636;BME280;6383;50.830;7.210;2023-04-16T07:08:55;101336.13;;;11.30;85.02
12636;BME280;6383;50.830;7.210;2023-04-16T07:11:24;101333.69;;;11.29;85.10
12636;BME280;6383;50.830;7.210;2023-04-16T07:13:53;101352.47;;;11.30;84.59
12636;BME280;6383;50.830;7.210;2023-04-16T07:16:24;101340.81;;;11.25;85.42
12636;BME280;6383;50.830;7.210;2023-04-16T07:18:54;101346.88;;;11.17;86.26
12636;BME280;6383;50.830;7.210;2023-04-16T07:21:23;101343.31;;;11.16;86.32
12636;BME280;6383;50.830;7.210;2023-04-16T07:23:53;101352.31;;;11.17;85.51
12636;BME280;6383;50.830;7.210;2023-04-16T07:26:22;101344.16;;;11.17;85.94
12636;BME280;6383;50.830;7.210;2023-04-16T07:28:51;101344.97;;;11.17;85.57
12636;BME280;6383;50.830;7.210;2023-04-16T07:31:19;101353.94;;;11.18;85.82
12636;BME280;6383;50.830;7.210;2023-04-16T07:33:49;101351.50;;;11.16;86.65
12636;BME280;6383;50.830;7.210;2023-04-16T07:36:17;101351.50;;;11.16;85.71
12636;BME280;6383;50.830;7.210;2023-04-16T07:38:46;101354.22;;;11.16;86.26
12636;BME280;6383;50.830;7.210;2023-04-16T07:41:14;101353.41;;;11.16;85.76
12636;BME280;6383;50.830;7.210;2023-04-16T07:43:42;101361.31;;;11.17;86.35
12636;BME280;6383;50.830;7.210;2023-04-16T07:46:12;101363.22;;;11.17;85.66
12636;BME280;6383;50.830;7.210;2023-04-16T07:48:41;101364.03;;;11.17;86.15
12636;BME280;6383;50.830;7.210;2023-04-16T07:51:10;101360.50;;;11.17;84.86
12636;BME280;6383;50.830;7.210;2023-04-16T07:53:41;101365.94;;;11.17;85.32
12636;BME280;6383;50.830;7.210;2023-04-16T07:56:10;101363.22;;;11.17;85.37
12636;BME280;6383;50.830;7.210;2023-04-16T07:58:39;101360.22;;;11.18;85.54
12636;BME280;6383;50.830;7.210;2023-04-16T08:01:07;101371.91;;;11.19;85.33
12636;BME280;6383;50.830;7.210;2023-04-16T08:03:35;101365.09;;;11.21;85.66
12636;BME280;6383;50.830;7.210;2023-04-16T08:06:04;101375.72;;;11.23;84.83
12636;BME280;6383;50.830;7.210;2023-04-16T08:08:31;101369.97;;;11.24;85.13
12636;BME280;6383;50.830;7.210;2023-04-16T08:11:01;101374.34;;;11.25;84.88
12636;BME280;6383;50.830;7.210;2023-04-16T08:13:30;101380.81;;;11.29;84.24
12636;BME280;6383;50.830;7.210;2023-04-16T08:16:00;101375.91;;;11.31;84.77
12636;BME280;6383;50.830;7.210;2023-04-16T08:18:29;101376.97;;;11.36;84.02
12636;BME280;6383;50.830;7.210;2023-04-16T08:20:57;101385.66;;;11.38;84.69
12636;BME280;6383;50.830;7.210;2023-04-16T08:23:26;101388.94;;;11.40;83.96
12636;BME280;6383;50.830;7.210;2023-04-16T08:25:55;101390.28;;;11.42;84.26
12636;BME280;6383;50.830;7.210;2023-04-16T08:28:25;101406.31;;;11.44;83.76
12636;BME280;6383;50.830;7.210;2023-04-16T08:30:54;101396.75;;;11.46;83.72
12636;BME280;6383;50.830;7.210;2023-04-16T08:33:23;101397.28;;;11.48;83.37
12636;BME280;6383;50.830;7.210;2023-04-16T08:35:50;101406.56;;;11.47;83.84
12636;BME280;6383;50.830;7.210;2023-04-16T08:38:20;101408.44;;;11.52;83.89
12636;BME280;6383;50.830;7.210;2023-04-16T08:40:49;101398.88;;;11.54;82.74
12636;BME280;6383;50.830;7.210;2023-04-16T08:43:19;101405.69;;;11.57;83.00
12636;BME280;6383;50.830;7.210;2023-04-16T08:45:54;101405.91;;;11.60;83.66
12636;BME280;6383;50.830;7.210;2023-04-16T08:48:23;101405.34;;;11.63;82.39
12636;BME280;6383;50.830;7.210;2023-04-16T08:50:53;101405.88;;;11.65;82.47
12636;BME280;6383;50.830;7.210;2023-04-16T08:53:26;101413.75;;;11.67;82.21
12636;BME280;6383;50.830;7.210;2023-04-16T08:55:58;101417.03;;;11.69;82.73
12636;BME280;6383;50.830;7.210;2023-04-16T08:58:31;101414.81;;;11.71;81.90
12636;BME280;6383;50.830;7.210;2023-04-16T09:01:03;101420.78;;;11.73;81.67
12636;BME280;6383;50.830;7.210;2023-04-16T09:03:31;101415.03;;;11.75;81.85
12636;BME280;6383;50.830;7.210;2023-04-16T09:05:59;101412.06;;;11.76;81.85
12636;BME280;6383;50.830;7.210;2023-04-16T09:08:31;101422.69;;;11.78;81.64
12636;BME280;6383;50.830;7.210;2023-04-16T09:10:59;101415.03;;;11.80;81.31
12636;BME280;6383;50.830;7.210;2023-04-16T09:13:30;101413.66;;;11.82;81.13
12636;BME280;6383;50.830;7.210;2023-04-16T09:15:59;101414.19;;;11.84;80.26
12636;BME280;6383;50.830;7.210;2023-04-16T09:18:29;101417.13;;;11.88;80.84
12636;BME280;6383;50.830;7.210;2023-04-16T09:20:56;101416.84;;;11.89;80.19
12636;BME280;6383;50.830;7.210;2023-04-16T09:23:25;101411.09;;;11.91;79.94
12636;BME280;6383;50.830;7.210;2023-04-16T09:25:52;101414.06;;;11.94;80.58
12636;BME280;6383;50.830;7.210;2023-04-16T09:28:39;101416.75;;;11.99;80.48
12636;BME280;6383;50.830;7.210;2023-04-16T09:31:10;101422.75;;;12.02;79.63
12636;BME280;6383;50.830;7.210;2023-04-16T09:33:42;101431.66;;;12.07;80.36
12636;BME280;6383;50.830;7.210;2023-04-16T09:36:10;101423.72;;;12.11;79.62
12636;BME280;6383;50.830;7.210;2023-04-16T09:38:46;101434.59;;;12.16;79.68
12636;BME280;6383;50.830;7.210;2023-04-16T09:41:15;101428.81;;;12.17;78.76
12636;BME280;6383;50.830;7.210;2023-04-16T09:43:52;101434.81;;;12.19;78.85
12636;BME280;6383;50.830;7.210;2023-04-16T09:46:23;101443.22;;;12.23;78.71
12636;BME280;6383;50.830;7.210;2023-04-16T09:48:53;101450.03;;;12.25;77.68
12636;BME280;6383;50.830;7.210;2023-04-16T09:51:21;101445.09;;;12.27;77.15
12636;BME280;6383;50.830;7.210;2023-04-16T09:53:51;101445.97;;;12.23;77.54
12636;BME280;6383;50.830;7.210;2023-04-16T09:56:23;101450.31;;;12.24;77.50
12636;BME280;6383;50.830;7.210;2023-04-16T09:58:56;101451.66;;;12.26;77.79
12636;BME280;6383;50.830;7.210;2023-04-16T10:01:25;101450.56;;;12.27;77.42
12636;BME280;6383;50.830;7.210;2023-04-16T10:03:57;101446.16;;;12.31;76.86
12636;BME280;6383;50.830;7.210;2023-04-16T10:06:24;101449.66;;;12.32;77.52
12636;BME280;6383;50.830;7.210;2023-04-16T10:08:54;101455.38;;;12.35;77.20
12636;BME280;6383;50.830;7.210;2023-04-16T10:11:23;101457.00;;;12.36;77.34
12636;BME280;6383;50.830;7.210;2023-04-16T10:13:52;101458.88;;;12.41;76.49
12636;BME280;6383;50.830;7.210;2023-04-16T10:16:22;101461.84;;;12.45;77.09
12636;BME280;6383;50.830;7.210;2023-04-16T10:18:52;101460.72;;;12.46;76.45
12636;BME280;6383;50.830;7.210;2023-04-16T10:21:23;101465.06;;;12.47;75.75
12636;BME280;6383;50.830;7.210;2023-04-16T10:23:59;101463.47;;;12.46;76.29
12636;BME280;6383;50.830;7.210;2023-04-16T10:26:28;101463.97;;;12.48;75.86
12636;BME280;6383;50.830;7.210;2023-04-16T10:28:57;101471.06;;;12.49;75.62
12636;BME280;6383;50.830;7.210;2023-04-16T10:31:28;101462.03;;;12.48;76.06
12636;BME280;6383;50.830;7.210;2023-04-16T10:33:57;101462.84;;;12.49;75.32
12636;BME280;6383;50.830;7.210;2023-04-16T10:36:28;101463.38;;;12.51;75.55
12636;BME280;6383;50.830;7.210;2023-04-16T10:38:57;101461.19;;;12.53;75.20
12636;BME280;6383;50.830;7.210;2023-04-16T10:41:26;101471.53;;;12.56;75.79
12636;BME280;6383;50.830;7.210;2023-04-16T10:44:03;101466.00;;;12.61;75.89
12636;BME280;6383;50.830;7.210;2023-04-16T10:46:37;101458.84;;;12.65;75.62
12636;BME280;6383;50.830;7.210;2023-04-16T10:49:12;101466.75;;;12.66;75.33
12636;BME280;6383;50.830;7.210;2023-04-16T10:51:51;101465.34;;;12.69;75.12
12636;BME280;6383;50.830;7.210;2023-04-16T10:54:23;101465.88;;;12.71;74.18
12636;BME280;6383;50.830;7.210;2023-04-16T10:56:55;101471.56;;;12.75;74.81
12636;BME280;6383;50.830;7.210;2023-04-16T10:59:24;101463.09;;;12.76;74.15
12636;BME280;6383;50.830;7.210;2023-04-16T11:01:54;101464.69;;;12.77;74.28
12636;BME280;6383;50.830;7.210;2023-04-16T11:04:37;101460.28;;;12.81;74.43
12636;BME280;6383;50.830;7.210;2023-04-16T11:07:16;101461.63;;;12.84;74.51
12636;BME280;6383;50.830;7.210;2023-04-16T11:09:50;101453.41;;;12.84;73.97
12636;BME280;6383;50.830;7.210;2023-04-16T11:12:21;101456.97;;;12.84;73.60
12636;BME280;6383;50.830;7.210;2023-04-16T11:14:52;101462.44;;;12.84;73.12
12636;BME280;6383;50.830;7.210;2023-04-16T11:17:20;101455.34;;;12.83;73.27
12636;BME280;6383;50.830;7.210;2023-04-16T11:19:50;101459.97;;;12.83;73.33
12636;BME280;6383;50.830;7.210;2023-04-16T11:22:20;101455.34;;;12.83;73.12
12636;BME280;6383;50.830;7.210;2023-04-16T11:24:53;101460.22;;;12.86;73.40
12636;BME280;6383;50.830;7.210;2023-04-16T11:27:22;101459.13;;;12.87;73.40
12636;BME280;6383;50.830;7.210;2023-04-16T11:30:02;101460.75;;;12.88;72.92
12636;BME280;6383;50.830;7.210;2023-04-16T11:32:32;101470.03;;;12.87;73.05
12636;BME280;6383;50.830;7.210;2023-04-16T11:35:03;101462.66;;;12.88;72.89
12636;BME280;6383;50.830;7.210;2023-04-16T11:37:35;101460.75;;;12.88;72.69
12636;BME280;6383;50.830;7.210;2023-04-16T11:40:03;101464.28;;;12.89;72.68
12636;BME280;6383;50.830;7.210;2023-04-16T11:42:33;101460.44;;;12.90;73.01
12636;BME280;6383;50.830;7.210;2023-04-16T11:45:09;101469.47;;;12.90;72.82
12636;BME280;6383;50.830;7.210;2023-04-16T11:47:44;101465.53;;;12.96;73.15
12636;BME280;6383;50.830;7.210;2023-04-16T11:50:17;101459.50;;;12.99;73.03
12636;BME280;6383;50.830;7.210;2023-04-16T11:52:49;101456.69;;;13.04;72.62
12636;BME280;6383;50.830;7.210;2023-04-16T11:55:17;101449.50;;;13.08;73.48
12636;BME280;6383;50.830;7.210;2023-04-16T11:57:47;101461.19;;;13.14;72.63
12636;BME280;6383;50.830;7.210;2023-04-16T12:00:16;101451.84;;;13.20;72.83
12636;BME280;6383;50.830;7.210;2023-04-16T12:02:48;101455.00;;;13.27;72.68
12636;BME280;6383;50.830;7.210;2023-04-16T12:05:29;101455.75;;;13.33;72.81
12636;BME280;6383;50.830;7.210;2023-04-16T12:08:00;101459.22;;;13.38;72.46
12636;BME280;6383;50.830;7.210;2023-04-16T12:10:31;101459.44;;;13.42;72.12
12636;BME280;6383;50.830;7.210;2023-04-16T12:13:11;101467.56;;;13.47;71.91
12636;BME280;6383;50.830;7.210;2023-04-16T12:15:44;101467.75;;;13.51;72.01
12636;BME280;6383;50.830;7.210;2023-04-16T12:18:14;101471.81;;;13.53;71.48
12636;BME280;6383;50.830;7.210;2023-04-16T12:20:43;101470.72;;;13.54;70.83
12636;BME280;6383;50.830;7.210;2023-04-16T12:23:23;101464.66;;;13.57;70.79
12636;BME280;6383;50.830;7.210;2023-04-16T12:25:53;101476.13;;;13.59;70.71
12636;BME280;6383;50.830;7.210;2023-04-16T12:28:26;101469.84;;;13.59;69.52
12636;BME280;6383;50.830;7.210;2023-04-16T12:30:56;101474.19;;;13.60;69.45
12636;BME280;6383;50.830;7.210;2023-04-16T12:33:25;101466.81;;;13.60;69.64
12636;BME280;6383;50.830;7.210;2023-04-16T12:35:54;101472.78;;;13.62;69.33
12636;BME280;6383;50.830;7.210;2023-04-16T12:38:22;101475.22;;;13.64;69.61
12636;BME280;6383;50.830;7.210;2023-04-16T12:40:52;101481.19;;;13.66;69.36
12636;BME280;6383;50.830;7.210;2023-04-16T12:43:23;101480.09;;;13.67;69.18
12636;BME280;6383;50.830;7.210;2023-04-16T12:45:52;101475.44;;;13.67;69.45
12636;BME280;6383;50.830;7.210;2023-04-16T12:48:20;101477.06;;;13.68;69.54
12636;BME280;6383;50.830;7.210;2023-04-16T12:50:49;101472.91;;;13.71;68.98
12636;BME280;6383;50.830;7.210;2023-04-16T12:53:19;101476.97;;;13.73;69.21
12636;BME280;6383;50.830;7.210;2023-04-16T12:55:49;101472.03;;;13.75;69.38
12636;BME280;6383;50.830;7.210;2023-04-16T12:58:18;101465.63;;;13.80;69.36
12636;BME280;6383;50.830;7.210;2023-04-16T13:00:47;101466.16;;;13.82;69.23
12636;BME280;6383;50.830;7.210;2023-04-16T13:03:15;101466.66;;;13.84;68.42
12636;BME280;6383;50.830;7.210;2023-04-16T13:05:43;101460.91;;;13.86;67.67
12636;BME280;6383;50.830;7.210;2023-04-16T13:08:12;101469.31;;;13.89;67.74
12636;BME280;6383;50.830;7.210;2023-04-16T13:10:41;101463.25;;;13.92;67.97
12636;BME280;6383;50.830;7.210;2023-04-16T13:13:12;101465.38;;;13.95;67.96